Time;durP1;ratioP1;P1;durP2;ratioP2;P2;SDS_P1;SDS_P2;PMS_P1;PMS_P2;Temp;Humidity;BMP_temperature;BMP_pressure;BME280_temperature;BME280_humidity;BME280_pressure;Samples;Min_cycle;Max_cycle;Signal;HPM_P1;HPM_P2
2023/06/15 00:00:57;;;;;;;3.90;2.90;;;20.90;49.30;;;;;;5054909;28;20453;-56
2023/06/15 00:03:25;;;;;;;4.17;2.70;;;20.80;49.50;;;;;;5055817;28;20522;-56
2023/06/15 00:05:52;;;;;;;5.90;2.80;;;20.80;49.60;;;;;;5055329;28;20958;-56
2023/06/15 00:08:18;;;;;;;4.13;2.73;;;20.80;49.60;;;;;;5055610;28;20445;-56
2023/06/15 00:10:45;;;;;;;3.37;2.93;;;20.80;49.70;;;;;;5055680;28;20477;-56
2023/06/15 00:13:13;;;;;;;4.93;2.77;;;20.70;49.70;;;;;;5055431;28;20457;-56
2023/06/15 00:15:40;;;;;;;3.60;2.90;;;20.70;49.90;;;;;;5055443;28;20487;-56
2023/06/15 00:18:07;;;;;;;3.00;2.80;;;20.70;50.00;;;;;;5055883;28;20476;-56
2023/06/15 00:20:34;;;;;;;3.60;2.43;;;20.60;50.10;;;;;;5055490;28;20442;-56
2023/06/15 00:23:01;;;;;;;4.27;2.77;;;20.50;50.40;;;;;;5055471;28;20460;-56
2023/06/15 00:25:28;;;;;;;2.90;2.70;;;20.40;50.10;;;;;;5055410;28;20453;-56
2023/06/15 00:27:55;;;;;;;3.10;2.80;;;20.40;50.30;;;;;;5057866;28;20474;-57
2023/06/15 00:30:23;;;;;;;3.40;3.10;;;20.30;50.30;;;;;;5059422;28;20477;-57
2023/06/15 00:32:49;;;;;;;2.90;2.70;;;20.30;50.50;;;;;;5056474;28;20445;-56
2023/06/15 00:35:16;;;;;;;3.10;2.70;;;20.20;50.50;;;;;;5055169;28;20453;-57
2023/06/15 00:37:43;;;;;;;3.00;2.70;;;20.20;50.60;;;;;;5054759;28;21002;-56
2023/06/15 00:40:10;;;;;;;3.47;3.20;;;20.10;50.70;;;;;;5054948;28;20445;-56
2023/06/15 00:42:37;;;;;;;6.20;2.47;;;20.00;50.80;;;;;;5054451;28;20452;-56
2023/06/15 00:45:05;;;;;;;6.23;2.93;;;20.00;50.70;;;;;;5054905;28;20578;-56
2023/06/15 00:47:38;;;;;;;3.20;2.90;;;20.00;50.90;;;;;;5054656;28;21007;-56
2023/06/15 00:50:09;;;;;;;4.27;3.30;;;19.90;51.20;;;;;;5054487;28;20975;-56
2023/06/15 00:52:37;;;;;;;2.80;2.57;;;19.80;51.30;;;;;;5054478;28;20496;-57
2023/06/15 00:55:04;;;;;;;3.50;3.00;;;19.80;51.50;;;;;;5054738;28;20457;-56
2023/06/15 00:57:32;;;;;;;4.10;2.53;;;19.70;51.50;;;;;;5054403;28;20466;-56
2023/06/15 00:59:59;;;;;;;3.43;3.20;;;19.60;51.60;;;;;;5054679;28;20446;-56
2023/06/15 01:02:27;;;;;;;3.67;3.30;;;19.60;51.70;;;;;;5054668;28;20453;-56
2023/06/15 01:04:55;;;;;;;2.80;2.60;;;19.60;51.90;;;;;;5055052;28;20873;-56
2023/06/15 01:07:27;;;;;;;3.20;3.00;;;19.50;51.90;;;;;;5054753;28;20470;-56
2023/06/15 01:09:55;;;;;;;3.70;3.10;;;19.50;52.00;;;;;;5054489;28;20488;-56
2023/06/15 01:12:22;;;;;;;3.07;2.87;;;19.50;52.20;;;;;;5054257;28;20466;-56
2023/06/15 01:14:49;;;;;;;3.63;3.33;;;19.40;52.20;;;;;;5055165;28;20450;-56
2023/06/15 01:17:23;;;;;;;5.33;3.63;;;19.40;52.30;;;;;;5054279;28;20469;-56
2023/06/15 01:19:57;;;;;;;3.07;2.87;;;19.40;52.60;;;;;;5054187;28;20529;-56
2023/06/15 01:22:45;;;;;;;3.40;3.10;;;19.40;52.70;;;;;;5054264;28;20434;-56
2023/06/15 01:25:26;;;;;;;3.50;3.20;;;19.40;52.90;;;;;;5054214;28;20436;-56
2023/06/15 01:27:58;;;;;;;4.17;3.17;;;19.40;53.00;;;;;;5054082;28;20469;-56
2023/06/15 01:30:26;;;;;;;3.20;3.00;;;19.30;53.20;;;;;;5053869;28;20955;-56
2023/06/15 01:32:53;;;;;;;7.00;3.23;;;19.30;53.40;;;;;;5054033;28;20454;-56
2023/06/15 01:35:20;;;;;;;3.33;3.10;;;19.30;53.50;;;;;;5055046;28;20458;-56
2023/06/15 01:37:47;;;;;;;4.30;3.47;;;19.30;53.70;;;;;;5056943;28;20485;-56
2023/06/15 01:40:14;;;;;;;3.80;3.17;;;19.30;53.70;;;;;;5057420;28;20442;-56
2023/06/15 01:42:42;;;;;;;3.37;3.07;;;19.20;53.80;;;;;;5053782;28;20429;-56
2023/06/15 01:45:11;;;;;;;3.10;2.80;;;19.20;54.00;;;;;;5054009;28;20449;-56
2023/06/15 01:47:40;;;;;;;4.00;3.60;;;19.20;54.20;;;;;;5054180;28;20458;-56
2023/06/15 01:50:08;;;;;;;4.30;2.73;;;19.10;54.00;;;;;;5053793;28;20485;-56
2023/06/15 01:52:34;;;;;;;3.53;3.23;;;19.10;54.00;;;;;;5053755;28;20454;-56
2023/06/15 01:55:01;;;;;;;3.20;2.87;;;19.10;54.10;;;;;;5053309;28;20449;-56
2023/06/15 01:57:28;;;;;;;3.57;2.80;;;19.00;54.20;;;;;;5053756;28;20470;-56
2023/06/15 01:59:55;;;;;;;3.30;2.60;;;19.00;53.90;;;;;;5053662;28;20445;-55
2023/06/15 02:02:23;;;;;;;3.47;2.80;;;18.90;53.90;;;;;;5053529;28;20453;-56
2023/06/15 02:04:50;;;;;;;3.10;2.80;;;18.80;54.00;;;;;;5053487;28;20442;-56
2023/06/15 02:07:17;;;;;;;3.30;2.80;;;18.80;54.30;;;;;;5053319;28;20466;-56
2023/06/15 02:09:43;;;;;;;2.60;2.40;;;18.80;54.50;;;;;;5053640;28;20487;-56
2023/06/15 02:12:11;;;;;;;2.97;2.73;;;18.70;54.60;;;;;;5053246;28;20468;-56
2023/06/15 02:14:37;;;;;;;3.27;2.97;;;18.70;54.70;;;;;;5053630;28;20442;-56
2023/06/15 02:17:05;;;;;;;3.30;3.00;;;18.70;54.90;;;;;;5053285;28;20484;-56
2023/06/15 02:19:33;;;;;;;4.77;2.80;;;18.60;55.00;;;;;;5053145;28;20552;-56
2023/06/15 02:22:00;;;;;;;3.27;3.00;;;18.60;55.00;;;;;;5053454;28;20453;-56
2023/06/15 02:24:26;;;;;;;3.70;3.40;;;18.50;55.20;;;;;;5052433;28;20951;-56
2023/06/15 02:26:53;;;;;;;3.50;3.20;;;18.50;55.30;;;;;;5053208;28;20472;-56
2023/06/15 02:29:20;;;;;;;3.00;2.70;;;18.50;55.40;;;;;;5053109;28;20445;-56
2023/06/15 02:31:47;;;;;;;3.80;3.40;;;18.40;55.50;;;;;;5052977;28;20536;-56
2023/06/15 02:34:13;;;;;;;3.17;2.97;;;18.40;55.60;;;;;;5053264;28;20456;-56
2023/06/15 02:36:41;;;;;;;4.37;2.90;;;18.40;55.70;;;;;;5053091;28;20470;-56
2023/06/15 02:39:08;;;;;;;3.30;3.00;;;18.30;55.70;;;;;;5053051;28;20449;-56
2023/06/15 02:41:35;;;;;;;3.40;3.10;;;18.30;55.80;;;;;;5053078;28;20819;-56
2023/06/15 02:44:02;;;;;;;4.17;3.60;;;18.20;55.80;;;;;;5053006;28;20449;-56
2023/06/15 02:46:28;;;;;;;3.80;3.40;;;18.20;56.00;;;;;;5052640;28;20480;-56
2023/06/15 02:48:56;;;;;;;3.17;2.97;;;18.20;56.70;;;;;;5053042;28;20461;-56
2023/06/15 02:51:24;;;;;;;5.40;3.20;;;18.20;56.30;;;;;;5052848;28;20538;-56
2023/06/15 02:53:52;;;;;;;3.00;2.80;;;18.10;56.30;;;;;;5052951;28;20457;-56
2023/06/15 02:56:19;;;;;;;2.97;2.77;;;18.10;56.30;;;;;;5052927;28;20490;-56
2023/06/15 02:58:47;;;;;;;3.43;3.13;;;18.10;56.40;;;;;;5052586;28;20458;-56
2023/06/15 03:01:16;;;;;;;7.13;2.83;;;18.10;56.30;;;;;;5052900;28;20445;-56
2023/06/15 03:03:43;;;;;;;4.90;2.87;;;18.00;56.40;;;;;;5053026;28;20473;-56
2023/06/15 03:06:10;;;;;;;6.70;3.40;;;18.00;56.50;;;;;;5052836;28;20539;-56
2023/06/15 03:08:38;;;;;;;3.50;3.07;;;17.90;56.50;;;;;;5052739;28;20450;-56
2023/06/15 03:11:06;;;;;;;3.37;2.63;;;17.90;56.70;;;;;;5052727;28;20484;-56
2023/06/15 03:13:33;;;;;;;2.93;2.73;;;17.80;56.60;;;;;;5052954;28;20425;-56
2023/06/15 03:16:01;;;;;;;2.63;2.43;;;17.80;56.70;;;;;;5052732;28;20800;-56
2023/06/15 03:18:28;;;;;;;2.83;2.63;;;17.70;56.60;;;;;;5052731;28;20457;-56
2023/06/15 03:20:57;;;;;;;3.63;3.10;;;17.70;56.70;;;;;;5052400;28;20962;-56
2023/06/15 03:23:23;;;;;;;3.20;2.93;;;17.70;56.80;;;;;;5052673;28;20450;-56
2023/06/15 03:25:51;;;;;;;3.83;3.43;;;17.70;57.00;;;;;;5052763;28;20442;-56
2023/06/15 03:28:22;;;;;;;3.23;2.93;;;17.70;57.10;;;;;;5052581;28;20453;-56
2023/06/15 03:30:52;;;;;;;3.10;2.90;;;17.70;57.30;;;;;;5052656;28;20465;-56
2023/06/15 03:33:21;;;;;;;5.30;3.40;;;17.70;57.50;;;;;;5052695;28;20480;-56
2023/06/15 03:35:48;;;;;;;5.17;3.60;;;17.60;57.60;;;;;;5054211;28;20450;-56
2023/06/15 03:38:15;;;;;;;3.47;3.17;;;17.60;57.70;;;;;;5056176;28;20548;-56
2023/06/15 03:40:42;;;;;;;2.80;2.60;;;17.60;57.70;;;;;;5055890;28;20864;-56
2023/06/15 03:43:09;;;;;;;3.20;2.90;;;17.50;57.80;;;;;;5055822;28;20939;-56
2023/06/15 03:45:37;;;;;;;3.10;2.90;;;17.50;57.90;;;;;;5056068;28;20453;-56
2023/06/15 03:48:05;;;;;;;3.93;3.40;;;17.50;58.00;;;;;;5056480;28;20469;-56
2023/06/15 03:50:32;;;;;;;2.70;2.50;;;17.50;58.00;;;;;;5055360;28;20473;-56
2023/06/15 03:52:58;;;;;;;3.33;3.13;;;17.50;57.90;;;;;;5055857;28;20487;-56
2023/06/15 03:55:26;;;;;;;3.37;2.87;;;17.40;57.90;;;;;;5055853;28;20442;-56
2023/06/15 03:57:52;;;;;;;3.40;3.10;;;17.40;58.10;;;;;;5055517;28;20991;-56
2023/06/15 04:00:19;;;;;;;3.30;3.10;;;17.40;58.20;;;;;;5055881;28;20453;-56
2023/06/15 04:02:47;;;;;;;4.20;3.80;;;17.50;58.40;;;;;;5055865;28;20453;-56
2023/06/15 04:05:14;;;;;;;4.27;3.87;;;17.50;58.60;;;;;;5055906;28;20457;-56
2023/06/15 04:07:41;;;;;;;3.93;3.47;;;17.50;58.70;;;;;;5055348;28;20480;-56
2023/06/15 04:10:09;;;;;;;3.67;3.37;;;17.50;58.70;;;;;;5055520;28;20457;-56
2023/06/15 04:12:35;;;;;;;4.27;3.80;;;17.50;59.10;;;;;;5055356;28;21081;-56
2023/06/15 04:15:02;;;;;;;3.73;3.43;;;17.40;59.00;;;;;;5055304;28;20441;-57
2023/06/15 04:17:29;;;;;;;4.93;3.73;;;17.40;59.10;;;;;;5055357;28;20477;-57
2023/06/15 04:19:57;;;;;;;5.33;3.90;;;17.50;59.10;;;;;;5055556;28;20441;-57
2023/06/15 04:22:25;;;;;;;4.97;4.13;;;17.40;59.30;;;;;;5055135;28;20520;-57
2023/06/15 04:24:52;;;;;;;3.80;3.50;;;17.50;59.40;;;;;;5055368;28;20871;-57
2023/06/15 04:27:19;;;;;;;5.37;3.93;;;17.40;59.60;;;;;;5055269;28;20492;-57
2023/06/15 04:29:49;;;;;;;5.03;3.77;;;17.40;59.90;;;;;;5055128;28;20450;-57
2023/06/15 04:32:17;;;;;;;11.03;4.20;;;17.40;59.90;;;;;;5054877;28;20473;-57
2023/06/15 04:34:45;;;;;;;5.50;3.40;;;17.40;60.20;;;;;;5055038;28;20449;-57
2023/06/15 04:37:13;;;;;;;4.40;4.00;;;17.50;59.90;;;;;;5054508;28;20488;-57
2023/06/15 04:39:40;;;;;;;5.67;4.03;;;17.50;60.00;;;;;;5054828;28;20454;-57
2023/06/15 04:42:09;;;;;;;7.77;4.50;;;17.50;60.40;;;;;;5054774;28;20443;-57
2023/06/15 04:44:35;;;;;;;7.67;4.30;;;17.60;60.90;;;;;;5054906;28;20821;-57
2023/06/15 04:47:04;;;;;;;3.80;3.23;;;17.60;61.60;;;;;;5054632;28;20465;-57
2023/06/15 04:49:31;;;;;;;6.50;3.60;;;17.60;61.60;;;;;;5054665;28;20449;-57
2023/06/15 04:51:58;;;;;;;4.50;4.20;;;17.70;62.50;;;;;;5054344;28;20861;-57
2023/06/15 04:54:26;;;;;;;7.30;4.10;;;17.80;63.20;;;;;;5054720;28;20967;-57
2023/06/15 04:56:53;;;;;;;4.40;4.10;;;17.90;62.90;;;;;;5055245;28;20560;-57
2023/06/15 04:59:20;;;;;;;8.03;4.37;;;18.00;62.80;;;;;;5055020;28;20453;-57
2023/06/15 05:01:47;;;;;;;6.27;4.33;;;18.00;63.30;;;;;;5054933;28;20473;-57
2023/06/15 05:04:14;;;;;;;4.73;4.17;;;18.10;63.60;;;;;;5054754;28;20453;-57
2023/06/15 05:06:40;;;;;;;5.40;4.17;;;18.10;63.20;;;;;;5054643;28;20468;-57
2023/06/15 05:09:07;;;;;;;6.40;4.30;;;18.20;63.40;;;;;;5054636;28;20449;-58
2023/06/15 05:11:35;;;;;;;4.83;4.40;;;18.30;63.80;;;;;;5053839;28;20998;-57
2023/06/15 05:14:04;;;;;;;5.97;4.20;;;18.30;64.00;;;;;;5054458;28;20456;-57
2023/06/15 05:16:30;;;;;;;8.70;5.03;;;18.40;64.20;;;;;;5053999;28;20465;-57
2023/06/15 05:18:57;;;;;;;4.10;3.70;;;18.50;64.00;;;;;;5054453;28;20456;-56
2023/06/15 05:21:24;;;;;;;4.63;4.23;;;18.60;64.10;;;;;;5054316;28;20448;-56
2023/06/15 05:23:51;;;;;;;4.70;4.30;;;18.70;64.70;;;;;;5054366;28;20454;-57
2023/06/15 05:26:18;;;;;;;5.07;4.67;;;18.80;65.10;;;;;;5054147;28;20477;-57
2023/06/15 05:28:46;;;;;;;6.47;4.20;;;18.90;64.70;;;;;;5053978;28;20464;-57
2023/06/15 05:31:12;;;;;;;5.73;4.50;;;19.00;65.10;;;;;;5054152;28;20477;-57
2023/06/15 05:33:39;;;;;;;4.50;4.10;;;19.00;65.40;;;;;;5054164;28;20457;-57
2023/06/15 05:36:06;;;;;;;5.07;4.57;;;19.10;65.90;;;;;;5054085;28;20560;-57
2023/06/15 05:38:33;;;;;;;5.80;4.37;;;19.20;65.20;;;;;;5053665;28;20457;-57
2023/06/15 05:41:00;;;;;;;5.83;4.33;;;19.30;65.30;;;;;;5053575;28;20943;-57
2023/06/15 05:43:27;;;;;;;5.53;5.03;;;19.40;65.70;;;;;;5053907;28;20536;-57
2023/06/15 05:45:55;;;;;;;8.80;5.40;;;19.50;65.20;;;;;;5053563;28;20473;-57
2023/06/15 05:48:21;;;;;;;5.70;4.90;;;19.50;65.40;;;;;;5053808;28;20450;-57
2023/06/15 05:50:48;;;;;;;5.07;4.57;;;19.60;64.60;;;;;;5053778;28;20480;-57
2023/06/15 05:53:15;;;;;;;5.10;4.37;;;19.70;64.00;;;;;;5053755;28;20783;-57
2023/06/15 05:55:41;;;;;;;8.20;4.80;;;19.80;62.90;;;;;;5053281;28;20460;-57
2023/06/15 05:58:08;;;;;;;5.10;4.23;;;19.90;62.70;;;;;;5052747;28;20445;-57
2023/06/15 06:00:35;;;;;;;9.33;3.90;;;20.00;62.50;;;;;;5054353;28;20445;-57
2023/06/15 06:03:04;;;;;;;5.30;3.90;;;20.00;61.80;;;;;;5053516;28;20499;-57
2023/06/15 06:05:31;;;;;;;4.90;4.37;;;20.20;62.20;;;;;;5053479;28;20461;-57
2023/06/15 06:07:57;;;;;;;8.77;4.80;;;20.30;63.70;;;;;;5053411;28;20554;-57
2023/06/15 06:10:24;;;;;;;5.13;4.63;;;20.40;63.90;;;;;;5053143;28;20445;-57
2023/06/15 06:12:52;;;;;;;7.23;4.47;;;20.40;63.50;;;;;;5052982;28;20485;-57
2023/06/15 06:15:18;;;;;;;4.10;3.70;;;20.50;62.40;;;;;;5053423;28;20445;-57
2023/06/15 06:17:45;;;;;;;4.40;4.00;;;20.60;61.50;;;;;;5052990;28;20465;-57
2023/06/15 06:20:14;;;;;;;8.80;4.70;;;20.80;61.10;;;;;;5052887;28;20446;-56
2023/06/15 06:22:41;;;;;;;5.93;3.70;;;21.00;61.70;;;;;;5053293;28;20453;-55
2023/06/15 06:25:08;;;;;;;4.50;3.27;;;21.10;58.90;;;;;;5052919;28;20878;-56
2023/06/15 06:27:35;;;;;;;5.83;4.07;;;21.30;58.00;;;;;;5053137;28;20835;-56
2023/06/15 06:30:02;;;;;;;3.90;3.60;;;21.50;58.50;;;;;;5053223;28;20449;-56
2023/06/15 06:32:29;;;;;;;5.13;4.33;;;21.60;57.70;;;;;;5052840;28;20466;-56
2023/06/15 06:34:56;;;;;;;4.50;4.10;;;21.80;56.60;;;;;;5052844;28;20481;-56
2023/06/15 06:37:25;;;;;;;3.70;3.40;;;22.00;55.30;;;;;;5053043;28;20466;-56
2023/06/15 06:39:52;;;;;;;6.00;4.73;;;22.20;54.80;;;;;;5053300;28;20816;-56
2023/06/15 06:42:19;;;;;;;4.27;3.83;;;22.30;54.40;;;;;;5053078;28;20448;-56
2023/06/15 06:44:46;;;;;;;6.30;3.50;;;22.50;53.70;;;;;;5053083;28;20446;-56
2023/06/15 06:47:12;;;;;;;5.63;3.67;;;22.70;52.80;;;;;;5053643;28;20477;-56
2023/06/15 06:49:39;;;;;;;4.67;3.83;;;22.80;52.20;;;;;;5052988;28;20445;-56
2023/06/15 06:52:07;;;;;;;4.67;4.20;;;23.10;51.50;;;;;;5052890;28;20489;-56
2023/06/15 06:54:35;;;;;;;4.53;3.70;;;23.20;49.60;;;;;;5052820;28;20453;-56
2023/06/15 06:57:03;;;;;;;4.87;3.40;;;23.40;49.20;;;;;;5052880;28;20469;-55
2023/06/15 06:59:30;;;;;;;5.20;4.10;;;23.50;48.80;;;;;;5052931;28;20449;-55
2023/06/15 07:01:57;;;;;;;4.13;3.43;;;23.70;48.00;;;;;;5052966;28;20525;-56
2023/06/15 07:04:23;;;;;;;4.40;3.70;;;23.90;47.60;;;;;;5053034;28;20524;-56
2023/06/15 07:06:50;;;;;;;7.47;3.77;;;24.10;47.50;;;;;;5052904;28;20466;-56
2023/06/15 07:09:17;;;;;;;3.63;3.33;;;24.20;46.60;;;;;;5053774;28;20449;-56
2023/06/15 07:11:45;;;;;;;4.50;4.10;;;24.40;45.90;;;;;;5056449;28;20489;-56
2023/06/15 07:14:12;;;;;;;4.17;3.77;;;24.60;45.60;;;;;;5056528;28;20820;-56
2023/06/15 07:16:39;;;;;;;8.10;4.00;;;24.70;44.90;;;;;;5056479;28;20480;-56
2023/06/15 07:19:06;;;;;;;5.13;3.60;;;24.90;45.30;;;;;;5057407;28;20445;-56
2023/06/15 07:21:32;;;;;;;6.40;3.50;;;25.00;44.90;;;;;;5056197;28;20846;-56
2023/06/15 07:23:59;;;;;;;4.13;3.63;;;25.20;44.20;;;;;;5056213;28;20452;-56
2023/06/15 07:26:26;;;;;;;5.33;3.10;;;25.50;44.00;;;;;;5056125;28;20975;-56
2023/06/15 07:28:54;;;;;;;5.20;2.97;;;25.60;42.70;;;;;;5056173;28;20438;-56
2023/06/15 07:31:21;;;;;;;3.83;3.43;;;25.80;42.10;;;;;;5056197;28;20487;-56
2023/06/15 07:33:48;;;;;;;6.50;3.30;;;26.00;42.00;;;;;;5056280;28;20506;-56
2023/06/15 07:36:15;;;;;;;3.80;3.17;;;26.20;42.00;;;;;;5056190;28;20465;-56
2023/06/15 07:38:41;;;;;;;4.20;3.57;;;26.40;41.70;;;;;;5056121;28;20519;-56
2023/06/15 07:41:08;;;;;;;4.10;3.50;;;26.60;41.30;;;;;;5056156;28;20450;-56
2023/06/15 07:43:35;;;;;;;6.43;3.30;;;26.70;40.80;;;;;;5056141;28;20445;-56
2023/06/15 07:46:03;;;;;;;3.93;2.93;;;26.90;39.90;;;;;;5055492;28;20947;-56
2023/06/15 07:48:30;;;;;;;3.90;3.07;;;27.10;39.80;;;;;;5055954;28;20457;-56
2023/06/15 07:50:57;;;;;;;4.80;3.30;;;27.30;39.70;;;;;;5055876;28;20468;-56
2023/06/15 07:53:24;;;;;;;3.77;3.47;;;27.50;39.30;;;;;;5055913;28;20481;-55
2023/06/15 07:55:51;;;;;;;3.67;3.03;;;27.60;37.00;;;;;;5055845;28;20465;-55
2023/06/15 07:58:17;;;;;;;3.40;3.10;;;27.70;36.60;;;;;;5056466;28;20849;-55
2023/06/15 08:00:44;;;;;;;5.17;3.47;;;27.90;37.30;;;;;;5056163;28;20966;-55
2023/06/15 08:03:12;;;;;;;4.13;2.87;;;28.10;37.60;;;;;;5056524;28;20450;-55
2023/06/15 08:05:39;;;;;;;3.67;3.37;;;28.40;37.50;;;;;;5055955;28;20456;-56
2023/06/15 08:08:06;;;;;;;3.57;3.37;;;28.60;36.30;;;;;;5055677;28;20579;-56
2023/06/15 08:10:33;;;;;;;3.77;3.47;;;28.70;35.60;;;;;;5056278;28;20477;-55
2023/06/15 08:12:59;;;;;;;6.77;3.77;;;28.80;35.40;;;;;;5055294;28;20485;-55
2023/06/15 08:15:26;;;;;;;5.90;3.40;;;29.00;34.50;;;;;;5055697;28;20449;-55
2023/06/15 08:17:53;;;;;;;3.70;3.17;;;29.20;34.80;;;;;;5055267;28;20469;-56
2023/06/15 08:20:21;;;;;;;5.87;3.30;;;29.40;34.80;;;;;;5055149;28;20446;-56
2023/06/15 08:22:48;;;;;;;3.47;3.00;;;29.60;33.30;;;;;;5054997;28;20450;-56
2023/06/15 08:25:14;;;;;;;3.43;2.80;;;29.70;33.40;;;;;;5055235;28;20476;-56
2023/06/15 08:27:42;;;;;;;4.13;3.10;;;29.90;33.20;;;;;;5055181;28;20568;-56
2023/06/15 08:30:10;;;;;;;3.40;3.10;;;30.10;32.80;;;;;;5055384;28;20895;-56
2023/06/15 08:32:36;;;;;;;7.50;3.70;;;30.30;32.50;;;;;;5055267;28;20831;-56
2023/06/15 08:35:03;;;;;;;5.90;3.23;;;30.40;31.80;;;;;;5055104;28;20429;-56
2023/06/15 08:37:31;;;;;;;3.30;3.00;;;30.60;31.90;;;;;;5055052;28;20476;-56
2023/06/15 08:39:58;;;;;;;3.83;3.43;;;30.80;32.20;;;;;;5055234;28;20445;-56
2023/06/15 08:42:28;;;;;;;7.90;3.13;;;31.00;32.80;;;;;;5054501;28;20958;-56
2023/06/15 08:44:57;;;;;;;9.30;4.33;;;31.20;31.40;;;;;;5055150;28;20449;-56
2023/06/15 08:47:24;;;;;;;4.20;3.57;;;31.40;30.00;;;;;;5055135;28;20503;-56
2023/06/15 08:49:53;;;;;;;4.33;3.97;;;31.50;29.80;;;;;;5054906;28;20461;-56
2023/06/15 08:52:21;;;;;;;5.50;4.23;;;31.70;29.40;;;;;;5054943;28;20485;-56
2023/06/15 08:54:51;;;;;;;4.90;3.20;;;31.80;29.60;;;;;;5054906;28;20453;-56
2023/06/15 08:57:18;;;;;;;4.97;3.63;;;32.00;29.30;;;;;;5059743;28;20473;-57
2023/06/15 08:59:45;;;;;;;3.50;3.20;;;32.10;27.80;;;;;;5059202;28;20524;-56
2023/06/15 09:02:19;;;;;;;5.67;4.50;;;32.30;27.50;;;;;;5057329;28;20487;-57
2023/06/15 09:04:46;;;;;;;5.60;3.77;;;32.50;28.10;;;;;;5054667;28;20433;-56
2023/06/15 09:07:13;;;;;;;4.10;3.70;;;32.70;29.00;;;;;;5054114;28;20465;-56
2023/06/15 09:09:40;;;;;;;6.87;3.77;;;32.90;29.50;;;;;;5054529;28;20480;-57
2023/06/15 09:12:19;;;;;;;4.50;4.10;;;33.10;28.80;;;;;;5054265;28;20491;-56
2023/06/15 09:14:46;;;;;;;7.50;3.57;;;33.20;27.50;;;;;;5054407;28;20433;-57
2023/06/15 09:17:19;;;;;;;7.80;4.20;;;33.40;26.10;;;;;;5054208;28;21041;-57
2023/06/15 09:19:46;;;;;;;4.93;3.80;;;33.50;26.70;;;;;;5054343;28;20448;-57
2023/06/15 09:22:13;;;;;;;4.90;3.90;;;33.60;27.30;;;;;;5054365;28;20453;-57
2023/06/15 09:24:40;;;;;;;6.63;3.90;;;33.70;27.10;;;;;;5054250;28;20456;-57
2023/06/15 09:27:17;;;;;;;4.13;3.83;;;33.80;26.80;;;;;;5054206;28;20552;-56
2023/06/15 09:30:02;;;;;;;4.00;3.60;;;34.00;26.10;;;;;;5054212;28;20437;-57
2023/06/15 09:32:29;;;;;;;4.80;3.80;;;34.20;26.70;;;;;;5053249;28;20469;-57
2023/06/15 09:34:58;;;;;;;3.80;3.50;;;34.30;26.30;;;;;;5053803;28;20457;-57
2023/06/15 09:37:26;;;;;;;4.40;3.80;;;34.50;26.20;;;;;;5053974;28;20530;-57
2023/06/15 09:39:53;;;;;;;4.63;4.30;;;34.60;26.10;;;;;;5054263;28;20456;-56
2023/06/15 09:42:25;;;;;;;6.37;4.03;;;34.80;25.50;;;;;;5054293;28;20437;-56
2023/06/15 09:44:54;;;;;;;4.00;3.70;;;34.90;24.70;;;;;;5055019;28;20434;-56
2023/06/15 09:47:20;;;;;;;4.87;4.37;;;35.10;25.00;;;;;;5053865;28;20496;-56
2023/06/15 09:49:49;;;;;;;5.43;4.30;;;35.40;24.80;;;;;;5053715;28;20445;-56
2023/06/15 09:52:16;;;;;;;6.17;4.10;;;35.60;24.00;;;;;;5054250;28;20481;-56
2023/06/15 09:54:44;;;;;;;4.00;3.70;;;35.90;24.20;;;;;;5053698;28;20445;-57
2023/06/15 09:57:12;;;;;;;8.07;4.60;;;36.10;24.10;;;;;;5053718;28;20555;-57
2023/06/15 09:59:40;;;;;;;3.97;3.63;;;36.30;23.90;;;;;;5053597;28;20207;-56
2023/06/15 10:02:12;;;;;;;7.20;4.67;;;36.60;23.40;;;;;;5053133;28;20939;-57
2023/06/15 10:04:41;;;;;;;5.50;4.10;;;36.80;22.80;;;;;;5053365;28;20241;-56
2023/06/15 10:07:12;;;;;;;10.93;4.30;;;36.90;22.50;;;;;;5053466;28;20300;-56
2023/06/15 10:09:42;;;;;;;4.70;3.70;;;37.30;22.40;;;;;;5053500;28;20283;-57
2023/06/15 10:12:13;;;;;;;4.60;3.90;;;37.70;22.70;;;;;;5053427;28;20230;-57
2023/06/15 10:14:48;;;;;;;10.17;4.53;;;37.90;22.20;;;;;;5053196;28;20244;-57
2023/06/15 10:17:17;;;;;;;7.22;4.15;;;37.90;22.40;;;;;;5053420;28;20226;-57
2023/06/15 10:19:47;;;;;;;15.03;4.80;;;37.70;22.60;;;;;;5053297;28;20232;-57
2023/06/15 10:22:17;;;;;;;17.13;4.40;;;37.50;23.10;;;;;;5053077;28;20198;-56
2023/06/15 10:24:45;;;;;;;13.03;5.47;;;37.10;23.20;;;;;;5053372;28;20652;-57
2023/06/15 10:27:12;;;;;;;7.73;4.77;;;36.70;23.50;;;;;;5053308;28;20230;-56
2023/06/15 10:29:52;;;;;;;9.23;5.27;;;36.30;23.80;;;;;;5053312;28;20210;-56
2023/06/15 10:32:27;;;;;;;8.37;4.70;;;35.90;23.70;;;;;;5053145;28;20464;-56
2023/06/15 10:34:58;;;;;;;9.23;3.90;;;35.60;24.30;;;;;;5053229;28;20429;-56
2023/06/15 10:37:31;;;;;;;7.37;4.20;;;35.30;24.90;;;;;;5053323;28;20481;-56
2023/06/15 10:40:02;;;;;;;5.37;4.50;;;34.90;25.20;;;;;;5053208;28;20456;-56
2023/06/15 10:42:29;;;;;;;5.07;4.57;;;35.00;25.90;;;;;;5053031;28;20429;-57
2023/06/15 10:45:00;;;;;;;4.80;4.30;;;35.50;25.50;;;;;;5055233;28;20448;-56
2023/06/15 10:47:27;;;;;;;5.20;4.67;;;35.90;25.00;;;;;;5057219;28;20460;-56
2023/06/15 10:49:55;;;;;;;9.00;4.70;;;36.60;24.40;;;;;;5056852;28;20844;-56
2023/06/15 10:52:22;;;;;;;8.20;3.70;;;37.40;22.50;;;;;;5057102;28;20553;-56
2023/06/15 10:54:49;;;;;;;5.00;3.40;;;38.20;21.70;;;;;;5057095;28;20206;-56
2023/06/15 10:57:17;;;;;;;5.32;4.18;;;39.20;21.30;;;;;;5056966;28;20228;-57
2023/06/15 10:59:49;;;;;;;6.32;3.67;;;40.10;20.30;;;;;;5057486;28;20203;-56
2023/06/15 11:02:58;;;;;;;6.47;3.63;;;40.90;18.70;;;;;;5058842;28;20191;-56
2023/06/15 11:05:25;;;;;;;4.18;3.78;;;41.80;17.40;;;;;;5057699;28;20240;-56
2023/06/15 11:07:52;;;;;;;3.90;3.30;;;42.40;15.30;;;;;;5057144;28;20233;-57
2023/06/15 11:10:23;;;;;;;4.82;4.15;;;42.70;15.90;;;;;;5057305;28;20212;-57
2023/06/15 11:13:00;;;;;;;5.18;3.75;;;43.20;16.70;;;;;;5056385;28;20726;-57
2023/06/15 11:15:31;;;;;;;3.92;3.28;;;43.40;16.10;;;;;;5057510;28;20187;-57
2023/06/15 11:18:02;;;;;;;5.88;3.75;;;43.90;16.50;;;;;;5056996;28;20218;-57
2023/06/15 11:20:59;;;;;;;4.80;3.58;;;44.40;16.60;;;;;;5056850;28;20191;-57
2023/06/15 11:23:32;;;;;;;4.78;3.30;;;45.00;15.80;;;;;;5055185;28;20237;-57
2023/06/15 11:26:01;;;;;;;7.05;4.18;;;45.40;15.00;;;;;;5056733;28;20587;-57
2023/06/15 11:28:33;;;;;;;5.38;3.67;;;45.90;14.30;;;;;;5056527;28;20205;-57
2023/06/15 11:31:01;;;;;;;4.85;3.40;;;46.20;14.50;;;;;;5056438;28;20588;-57
2023/06/15 11:33:30;;;;;;;9.50;4.00;;;46.50;13.40;;;;;;5056296;28;20229;-57
2023/06/15 11:36:03;;;;;;;9.95;4.00;;;46.70;13.60;;;;;;5056207;28;20206;-57
2023/06/15 11:38:30;;;;;;;10.82;4.00;;;46.90;12.60;;;;;;5056013;28;20563;-57
2023/06/15 11:41:01;;;;;;;4.93;3.25;;;47.00;13.10;;;;;;5056009;28;20570;-57
2023/06/15 11:43:32;;;;;;;5.57;2.72;;;47.20;12.80;;;;;;5056081;28;20282;-57
2023/06/15 11:45:59;;;;;;;3.15;2.90;;;47.40;13.10;;;;;;5056136;28;20241;-57
2023/06/15 11:48:26;;;;;;;4.35;3.40;;;47.50;12.70;;;;;;5056001;28;20215;-57
2023/06/15 11:50:56;;;;;;;5.25;3.20;;;47.20;13.00;;;;;;5055961;28;20685;-57
2023/06/15 11:53:23;;;;;;;5.55;3.88;;;46.20;14.00;;;;;;5055972;28;20244;-57
2023/06/15 11:55:50;;;;;;;6.10;4.07;;;45.00;14.50;;;;;;5054622;28;20206;-57
2023/06/15 11:58:16;;;;;;;5.13;3.85;;;44.30;15.50;;;;;;5055949;28;20233;-57
2023/06/15 12:00:44;;;;;;;3.80;3.35;;;44.40;15.40;;;;;;5055851;28;20209;-57
2023/06/15 12:03:11;;;;;;;5.88;3.80;;;44.90;15.40;;;;;;5055842;28;20245;-57
2023/06/15 12:05:39;;;;;;;3.55;3.10;;;45.40;15.40;;;;;;5055692;28;20206;-57
2023/06/15 12:08:07;;;;;;;4.82;3.80;;;46.00;14.60;;;;;;5055701;28;20222;-57
2023/06/15 12:10:37;;;;;;;4.10;3.42;;;46.40;14.60;;;;;;5055708;28;20210;-57
2023/06/15 12:13:04;;;;;;;3.97;3.67;;;46.90;14.10;;;;;;5055211;28;20297;-57
2023/06/15 12:15:31;;;;;;;4.57;3.40;;;47.50;13.80;;;;;;5055639;28;20225;-57
2023/06/15 12:17:59;;;;;;;8.30;3.58;;;47.80;12.80;;;;;;5055278;28;20258;-57
2023/06/15 12:20:29;;;;;;;3.85;3.42;;;48.20;12.50;;;;;;5055474;28;20238;-57
2023/06/15 12:22:56;;;;;;;4.35;3.88;;;48.60;12.70;;;;;;5055562;28;20203;-57
2023/06/15 12:25:44;;;;;;;3.88;3.47;;;48.90;11.50;;;;;;5055456;28;20202;-57
2023/06/15 12:28:14;;;;;;;3.78;3.47;;;49.10;11.30;;;;;;5055410;28;20207;-57
2023/06/15 12:30:42;;;;;;;6.75;3.83;;;49.30;12.40;;;;;;5054977;28;20668;-57
2023/06/15 12:33:24;;;;;;;3.85;3.55;;;49.50;12.50;;;;;;5055194;28;20223;-57
2023/06/15 12:35:51;;;;;;;10.60;3.83;;;49.80;12.00;;;;;;5055265;28;20241;-57
2023/06/15 12:38:20;;;;;;;5.22;3.72;;;50.00;11.40;;;;;;5054850;28;20680;-57
2023/06/15 12:40:48;;;;;;;4.80;3.72;;;50.30;11.40;;;;;;5055246;28;20202;-57
2023/06/15 12:43:16;;;;;;;3.47;3.17;;;50.50;10.80;;;;;;5055189;28;20253;-57
2023/06/15 12:45:43;;;;;;;8.82;3.88;;;50.70;10.80;;;;;;5055112;28;20260;-57
2023/06/15 12:48:11;;;;;;;4.65;4.07;;;51.00;10.80;;;;;;5054974;28;20213;-57
2023/06/15 12:50:37;;;;;;;7.22;4.60;;;51.00;9.20;;;;;;5054827;28;20238;-57